createdAt,value
2023-02-01T00:00:36.395Z,102092.59
2023-02-01T00:03:03.028Z,102098.00
2023-02-01T00:05:29.647Z,102092.50
2023-02-01T00:07:58.761Z,102088.78
2023-02-01T00:10:25.469Z,102078.66
2023-02-01T00:12:52.037Z,102076.56
2023-02-01T00:15:21.760Z,102061.94
2023-02-01T00:17:48.423Z,102051.78
2023-02-01T00:20:15.019Z,102061.50
2023-02-01T00:22:41.597Z,102062.19
2023-02-01T00:25:08.673Z,102032.25
2023-02-01T00:27:35.277Z,102055.63
2023-02-01T00:30:01.911Z,102047.59
2023-02-01T00:32:28.494Z,102052.06
2023-02-01T00:34:55.085Z,102048.84
2023-02-01T00:37:22.580Z,102054.69
2023-02-01T00:39:52.159Z,102054.59
2023-02-01T00:42:18.773Z,102054.59
2023-02-01T00:44:47.958Z,102022.13
2023-02-01T00:47:16.895Z,102047.16
2023-02-01T00:49:45.990Z,102057.06
2023-02-01T00:52:12.520Z,102049.97
2023-02-01T00:54:39.129Z,102049.88
2023-02-01T00:57:05.688Z,102048.31
2023-02-01T00:59:32.235Z,102045.88
2023-02-01T01:02:03.401Z,102037.06
2023-02-01T01:04:32.954Z,102034.78
2023-02-01T01:06:59.524Z,102029.44
2023-02-01T01:09:26.062Z,102050.16
2023-02-01T01:11:53.748Z,102051.09
2023-02-01T01:14:20.531Z,102043.16
2023-02-01T01:16:47.141Z,102030.66
2023-02-01T01:19:16.069Z,102037.91
2023-02-01T01:21:45.010Z,102017.06
2023-02-01T01:24:11.571Z,102030.13
2023-02-01T01:26:38.206Z,102027.88
2023-02-01T01:29:09.279Z,102023.16
2023-02-01T01:31:35.900Z,102033.97
2023-02-01T01:34:04.875Z,102031.44
2023-02-01T01:36:31.464Z,102038.69
2023-02-01T01:38:59.319Z,102037.81
2023-02-01T01:41:30.678Z,102035.25
2023-02-01T01:44:08.839Z,102037.34
2023-02-01T01:46:41.618Z,102038.13
2023-02-01T01:49:08.431Z,102036.31
2023-02-01T01:51:41.598Z,102047.22
2023-02-01T01:54:16.403Z,101995.94
2023-02-01T01:56:43.245Z,102048.34
2023-02-01T01:59:10.641Z,102049.41
2023-02-01T02:01:37.348Z,102025.19
2023-02-01T02:04:05.355Z,102050.44
2023-02-01T02:06:45.065Z,102045.09
2023-02-01T02:09:12.345Z,102021.25
2023-02-01T02:11:38.960Z,102016.31
2023-02-01T02:14:08.486Z,102022.09
2023-02-01T02:17:01.226Z,102014.84
2023-02-01T02:19:58.477Z,102014.06
2023-02-01T02:23:02.417Z,102004.47
2023-02-01T02:25:39.562Z,101995.03
2023-02-01T02:28:24.794Z,102010.91
2023-02-01T02:31:36.571Z,102005.69
2023-02-01T02:34:03.124Z,102008.09
2023-02-01T02:36:35.607Z,102000.00
2023-02-01T02:39:14.256Z,102002.69
2023-02-01T02:42:31.170Z,101937.34
2023-02-01T02:45:32.751Z,102001.50
2023-02-01T02:48:08.768Z,102011.09
2023-02-01T02:51:03.655Z,102003.34
2023-02-01T02:54:06.968Z,101998.19
2023-02-01T02:56:54.707Z,101979.34
2023-02-01T02:59:44.115Z,101974.03
2023-02-01T03:02:30.205Z,101979.97
2023-02-01T03:04:57.491Z,101982.41
2023-02-01T03:07:59.062Z,101986.50
2023-02-01T03:10:42.769Z,101990.41
2023-02-01T03:13:16.638Z,101992.59
2023-02-01T03:16:04.927Z,101976.88
2023-02-01T03:19:09.288Z,101981.25
2023-02-01T03:21:44.624Z,101981.94
2023-02-01T03:24:22.778Z,101956.47
2023-02-01T03:26:56.937Z,101974.56
2023-02-01T03:29:30.641Z,101964.72
2023-02-01T03:31:57.273Z,101971.09
2023-02-01T03:34:23.993Z,101976.50
2023-02-01T03:36:57.286Z,101973.91
2023-02-01T03:39:37.954Z,101944.13
2023-02-01T03:42:11.537Z,101926.44
2023-02-01T03:44:55.085Z,101915.28
2023-02-01T03:47:24.913Z,101959.44
2023-02-01T03:49:56.602Z,101962.41
2023-02-01T03:52:47.814Z,101951.50
2023-02-01T03:55:17.436Z,101962.84
2023-02-01T03:57:56.562Z,101943.81
2023-02-01T04:00:26.190Z,101973.25
2023-02-01T04:02:55.640Z,101966.06
2023-02-01T04:05:22.674Z,101953.78
2023-02-01T04:07:49.517Z,101949.88
2023-02-01T04:10:19.859Z,101978.06
2023-02-01T04:12:49.630Z,101970.09
2023-02-01T04:15:16.245Z,101932.50
2023-02-01T04:17:42.843Z,101966.63
2023-02-01T04:20:10.343Z,101966.72
2023-02-01T04:22:36.959Z,101959.63
2023-02-01T04:25:04.025Z,101961.63
2023-02-01T04:27:32.895Z,101970.19
2023-02-01T04:29:59.441Z,101956.56
2023-02-01T04:32:26.001Z,101969.50
2023-02-01T04:34:54.814Z,101944.13
2023-02-01T04:37:21.478Z,101959.97
2023-02-01T04:39:48.009Z,101964.50
2023-02-01T04:42:14.604Z,101977.97
2023-02-01T04:44:42.947Z,101985.13
2023-02-01T04:47:10.601Z,101920.88
2023-02-01T04:49:39.413Z,101994.19
2023-02-01T04:52:05.988Z,101979.59
2023-02-01T04:54:32.603Z,101986.16
2023-02-01T04:56:59.189Z,101963.09
2023-02-01T04:59:26.054Z,101911.19
2023-02-01T05:01:52.737Z,101973.22
2023-02-01T05:04:19.699Z,101982.81
2023-02-01T05:06:46.433Z,101945.81
2023-02-01T05:09:13.176Z,101981.41
2023-02-01T05:11:58.274Z,101963.25
2023-02-01T05:14:24.872Z,101966.63
2023-02-01T05:16:51.427Z,101966.44
2023-02-01T05:19:20.506Z,101977.00
2023-02-01T05:21:51.912Z,101944.88
2023-02-01T05:24:21.542Z,101964.75
2023-02-01T05:26:49.362Z,101932.84
2023-02-01T05:29:17.201Z,101950.34
2023-02-01T05:31:46.198Z,101946.28
2023-02-01T05:34:12.999Z,101948.19
2023-02-01T05:36:39.843Z,101945.16
2023-02-01T05:39:06.486Z,101960.19
2023-02-01T05:41:33.119Z,101963.84
2023-02-01T05:43:59.677Z,101968.31
2023-02-01T05:46:26.486Z,101950.88
2023-02-01T05:48:55.348Z,101946.41
2023-02-01T05:51:24.408Z,101963.56
2023-02-01T05:53:50.981Z,101970.56
2023-02-01T05:56:17.623Z,101968.44
2023-02-01T05:58:44.319Z,101948.28
2023-02-01T06:01:11.140Z,101728.47
2023-02-01T06:03:38.874Z,101910.88
2023-02-01T06:06:08.772Z,101981.31
2023-02-01T06:08:35.603Z,101977.41
2023-02-01T06:11:05.297Z,101935.94
2023-02-01T06:13:34.507Z,101909.78
2023-02-01T06:16:03.427Z,101966.81
2023-02-01T06:18:31.603Z,101973.81
2023-02-01T06:21:01.683Z,101881.84
2023-02-01T06:23:29.305Z,101888.31
2023-02-01T06:26:01.746Z,101971.84
2023-02-01T06:28:29.539Z,101983.00
2023-02-01T06:30:56.744Z,101969.38
2023-02-01T06:33:23.413Z,101955.41
2023-02-01T06:35:50.124Z,101984.25
2023-02-01T06:38:16.755Z,101923.91
2023-02-01T06:40:43.373Z,102001.00
2023-02-01T06:43:09.992Z,101999.97
2023-02-01T06:45:36.573Z,101995.50
2023-02-01T06:48:05.575Z,101944.75
2023-02-01T06:50:32.254Z,101992.03
2023-02-01T06:52:58.785Z,101990.25
2023-02-01T06:55:27.717Z,102000.44
2023-02-01T06:57:57.320Z,102004.13
2023-02-01T07:00:24.730Z,101963.63
2023-02-01T07:02:51.859Z,101974.94
2023-02-01T07:05:18.488Z,101965.06
2023-02-01T07:07:47.682Z,101976.06
2023-02-01T07:10:14.295Z,101981.03
2023-02-01T07:12:45.768Z,101989.44
2023-02-01T07:18:23.929Z,101990.59
2023-02-01T07:20:55.273Z,102000.53
2023-02-01T07:23:22.715Z,102004.25
2023-02-01T07:25:54.196Z,101993.50
2023-02-01T07:28:24.726Z,101977.94
2023-02-01T07:30:55.581Z,101992.88
2023-02-01T07:33:29.620Z,102001.09
2023-02-01T07:36:02.491Z,102001.09
2023-02-01T07:38:36.333Z,102000.19
2023-02-01T07:41:10.852Z,102000.09
2023-02-01T07:43:39.053Z,102001.84
2023-02-01T07:46:14.369Z,102000.94
2023-02-01T07:48:42.276Z,102003.56
2023-02-01T07:51:13.660Z,101996.38
2023-02-01T07:53:43.676Z,101996.19
2023-02-01T07:56:19.929Z,101997.06
2023-02-01T07:58:59.087Z,102000.53
2023-02-01T08:01:29.161Z,102009.56
2023-02-01T08:04:03.172Z,102021.94
2023-02-01T08:06:36.322Z,102011.03
2023-02-01T08:09:04.871Z,102006.31
2023-02-01T08:11:34.648Z,102011.59
2023-02-01T08:14:03.313Z,102019.38
2023-02-01T08:16:30.476Z,102011.25
2023-02-01T08:18:57.988Z,102022.75
2023-02-01T08:21:37.961Z,102024.34
2023-02-01T08:24:06.866Z,102026.00
2023-02-01T08:26:33.628Z,102029.38
2023-02-01T08:29:05.729Z,102023.88
2023-02-01T08:31:32.499Z,102027.72
2023-02-01T08:34:03.107Z,102025.59
2023-02-01T08:36:32.059Z,102009.03
2023-02-01T08:38:58.930Z,102017.78
2023-02-01T08:41:28.268Z,102006.34
2023-02-01T08:43:55.409Z,102018.56
2023-02-01T08:46:22.931Z,101987.19
2023-02-01T08:48:50.347Z,102007.34
2023-02-01T08:51:18.955Z,102006.28
2023-02-01T08:53:45.981Z,102011.50
2023-02-01T08:56:15.358Z,101995.06
2023-02-01T08:58:42.378Z,102007.91
2023-02-01T09:01:11.878Z,102006.09
2023-02-01T09:03:38.523Z,102001.63
2023-02-01T09:06:07.685Z,102001.72
2023-02-01T09:08:35.633Z,102003.38
2023-02-01T09:11:04.688Z,101960.28
2023-02-01T09:13:31.554Z,101992.13
2023-02-01T09:15:58.285Z,101967.03
2023-02-01T09:18:24.954Z,101976.72
2023-02-01T09:20:54.097Z,101975.03
2023-02-01T09:23:21.489Z,101969.06
2023-02-01T09:25:51.377Z,101981.72
2023-02-01T09:28:18.819Z,101975.66
2023-02-01T09:30:45.684Z,101988.81
2023-02-01T09:33:12.393Z,101984.50
2023-02-01T09:35:39.224Z,101997.06
2023-02-01T09:38:06.326Z,101996.66
2023-02-01T09:40:38.220Z,101989.69
2023-02-01T09:43:07.545Z,101984.53
2023-02-01T09:45:52.659Z,101970.84
2023-02-01T09:48:23.896Z,101857.56
2023-02-01T09:50:55.935Z,101966.72
2023-02-01T09:53:26.276Z,101979.47
2023-02-01T09:56:03.617Z,101958.16
2023-02-01T09:58:33.918Z,101980.25
2023-02-01T10:01:04.961Z,101952.97
2023-02-01T10:03:35.267Z,101994.59
2023-02-01T10:06:32.425Z,101986.91
2023-02-01T10:09:32.093Z,101993.97
2023-02-01T10:12:01.823Z,101991.47
2023-02-01T10:14:39.039Z,102006.16
2023-02-01T10:17:36.633Z,101999.41
2023-02-01T10:20:14.352Z,102009.72
2023-02-01T10:23:22.705Z,102017.13
2023-02-01T10:25:53.147Z,102000.34
2023-02-01T10:28:22.559Z,102012.00
2023-02-01T10:30:50.087Z,101959.09
2023-02-01T10:33:28.556Z,102016.66
2023-02-01T10:36:04.236Z,101989.25
2023-02-01T10:38:34.029Z,101994.56
2023-02-01T10:41:04.882Z,101998.16
2023-02-01T10:43:32.093Z,101885.84
2023-02-01T10:45:58.776Z,101984.22
2023-02-01T10:48:25.542Z,102007.50
2023-02-01T10:51:00.884Z,101970.53
2023-02-01T10:53:30.427Z,102002.75
2023-02-01T10:55:57.216Z,101968.91
2023-02-01T10:58:33.616Z,101983.16
2023-02-01T11:01:11.342Z,101957.94
2023-02-01T11:03:42.256Z,101921.28
2023-02-01T11:06:27.468Z,101980.44
2023-02-01T11:08:58.883Z,101977.72
2023-02-01T11:11:26.734Z,101975.88
2023-02-01T11:14:14.999Z,101957.19
2023-02-01T11:16:41.798Z,101955.09
2023-02-01T11:19:08.362Z,101898.09
2023-02-01T11:21:35.494Z,101957.06
2023-02-01T11:24:18.014Z,101882.66
2023-02-01T11:26:47.526Z,101949.34
2023-02-01T11:29:23.120Z,101960.44
2023-02-01T11:31:51.146Z,101924.88
2023-02-01T11:34:22.085Z,101949.13
2023-02-01T11:36:50.798Z,101943.38
2023-02-01T11:39:35.836Z,101927.69
2023-02-01T11:42:18.033Z,101937.28
2023-02-01T11:44:48.321Z,101940.47
2023-02-01T11:47:33.328Z,101918.34
2023-02-01T11:50:06.090Z,101914.44
2023-02-01T11:53:07.701Z,101932.72
2023-02-01T11:55:40.317Z,101954.06
2023-02-01T11:58:15.969Z,101946.22
2023-02-01T12:01:11.935Z,101941.00
2023-02-01T12:03:53.657Z,101936.63
2023-02-01T12:06:38.971Z,101948.63
2023-02-01T12:09:14.669Z,101950.66
2023-02-01T12:12:05.059Z,101940.78
2023-02-01T12:14:34.587Z,101943.50
2023-02-01T12:17:25.654Z,101934.69
2023-02-01T12:20:11.918Z,101933.34
2023-02-01T12:22:43.485Z,101931.41
2023-02-01T12:25:55.307Z,101912.16
2023-02-01T12:28:39.834Z,101929.59
2023-02-01T12:31:11.071Z,101925.78
2023-02-01T12:33:48.069Z,101920.00
2023-02-01T12:36:17.633Z,101936.22
2023-02-01T12:39:11.616Z,101916.75
2023-02-01T12:41:56.503Z,101910.97
2023-02-01T12:44:33.813Z,101929.03
2023-02-01T12:47:18.489Z,101914.78
2023-02-01T12:50:02.691Z,101934.25
2023-02-01T12:52:37.587Z,101918.13
2023-02-01T12:55:33.874Z,101920.53
2023-02-01T12:58:14.862Z,101905.00
2023-02-01T13:00:47.241Z,101907.56
2023-02-01T13:03:40.329Z,101939.66
2023-02-01T13:06:38.562Z,101909.53
2023-02-01T13:09:24.354Z,101879.00
2023-02-01T13:11:54.234Z,101884.06
2023-02-01T13:14:33.006Z,101910.09
2023-02-01T13:17:11.905Z,101909.88
2023-02-01T13:19:53.640Z,101909.59
2023-02-01T13:22:34.120Z,101908.75
2023-02-01T13:25:12.924Z,101913.34
2023-02-01T13:27:40.047Z,101889.56
2023-02-01T13:30:27.029Z,101871.47
2023-02-01T13:33:54.593Z,101911.19
2023-02-01T13:36:22.973Z,101920.00
2023-02-01T13:39:14.177Z,101909.84
2023-02-01T13:41:54.930Z,101915.97
2023-02-01T13:45:00.002Z,101926.13
2023-02-01T13:47:28.688Z,101895.81
2023-02-01T13:49:59.306Z,101914.25
2023-02-01T13:52:35.544Z,101923.91
2023-02-01T13:55:21.999Z,101919.09
2023-02-01T13:57:51.477Z,101920.34
2023-02-01T14:00:37.066Z,101916.19
2023-02-01T14:03:08.898Z,101925.38
2023-02-01T14:05:35.758Z,101916.31
2023-02-01T14:08:08.770Z,101927.31
2023-02-01T14:10:57.981Z,101926.69
2023-02-01T14:13:36.627Z,101894.34
2023-02-01T14:16:03.263Z,101922.81
2023-02-01T14:18:36.033Z,101936.66
2023-02-01T14:21:23.838Z,101942.44
2023-02-01T14:23:53.747Z,101937.09
2023-02-01T14:26:24.445Z,101944.50
2023-02-01T14:28:57.001Z,101937.31
2023-02-01T14:32:17.693Z,101933.97
2023-02-01T14:34:47.100Z,101930.28
2023-02-01T14:37:13.627Z,101929.38
2023-02-01T14:39:50.542Z,101948.44
2023-02-01T14:42:47.504Z,101938.00
2023-02-01T14:45:24.028Z,101925.91
2023-02-01T14:48:06.436Z,101936.03
2023-02-01T14:50:41.350Z,101928.84
2023-02-01T14:53:13.507Z,101949.75
2023-02-01T14:55:50.289Z,101929.97
2023-02-01T14:58:35.618Z,101941.81
2023-02-01T15:01:06.099Z,101950.09
2023-02-01T15:03:35.760Z,101934.72
2023-02-01T15:06:04.524Z,101933.03
2023-02-01T15:08:39.923Z,101937.56
2023-02-01T15:11:16.825Z,101945.50
2023-02-01T15:13:54.983Z,101926.72
2023-02-01T15:16:23.873Z,101935.75
2023-02-01T15:19:09.752Z,101928.78
2023-02-01T15:21:52.793Z,101957.63
2023-02-01T15:24:26.677Z,101956.72
2023-02-01T15:26:55.429Z,101962.28
2023-02-01T15:29:28.603Z,101954.25
2023-02-01T15:31:58.017Z,101921.75
2023-02-01T15:34:24.592Z,101946.53
2023-02-01T15:37:02.407Z,101959.91
2023-02-01T15:39:32.023Z,101957.84
2023-02-01T15:42:03.290Z,101950.66
2023-02-01T15:44:41.490Z,101958.38
2023-02-01T15:47:21.532Z,101952.63
2023-02-01T15:49:53.036Z,101908.47
2023-02-01T15:52:42.539Z,101949.25
2023-02-01T15:55:21.144Z,101883.56
2023-02-01T15:57:50.517Z,101950.34
2023-02-01T16:00:28.719Z,101970.81
2023-02-01T16:02:58.906Z,101961.84
2023-02-01T16:05:45.730Z,101970.13
2023-02-01T16:08:23.315Z,101962.22
2023-02-01T16:10:55.605Z,101963.19
2023-02-01T16:13:22.653Z,101853.22
2023-02-01T16:15:50.473Z,101856.06
2023-02-01T16:18:18.916Z,101976.03
2023-02-01T16:20:46.438Z,101904.88
2023-02-01T16:23:13.714Z,101957.75
2023-02-01T16:25:41.214Z,101983.31
2023-02-01T16:28:09.184Z,101982.34
2023-02-01T16:30:36.612Z,101973.66
2023-02-01T16:33:05.918Z,101989.53
2023-02-01T16:35:38.298Z,101921.63
2023-02-01T16:38:13.199Z,101972.84
2023-02-01T16:40:40.789Z,101988.75
2023-02-01T16:43:18.583Z,101973.44
2023-02-01T16:45:52.656Z,101998.75
2023-02-01T16:48:31.118Z,101999.63
2023-02-01T16:51:09.898Z,101996.59
2023-02-01T16:53:48.315Z,102005.19
2023-02-01T16:56:21.797Z,101977.13
2023-02-01T16:58:48.511Z,102013.44
2023-02-01T17:01:18.203Z,102012.59
2023-02-01T17:03:46.575Z,101988.22
2023-02-01T17:06:18.373Z,102011.50
2023-02-01T17:08:52.333Z,101997.59
2023-02-01T17:11:19.513Z,102006.06
2023-02-01T17:13:46.474Z,102027.16
2023-02-01T17:16:19.264Z,102030.88
2023-02-01T17:18:58.081Z,102009.09
2023-02-01T17:21:31.264Z,102011.63
2023-02-01T17:24:00.046Z,102029.97
2023-02-01T17:26:26.884Z,102027.50
2023-02-01T17:28:53.501Z,102030.22
2023-02-01T17:31:22.699Z,102031.94
2023-02-01T17:33:53.336Z,102027.72
2023-02-01T17:36:22.942Z,102036.09
2023-02-01T17:39:03.683Z,102039.13
2023-02-01T17:41:34.961Z,102022.06
2023-02-01T17:44:03.011Z,102029.13
2023-02-01T17:46:31.960Z,102036.22
2023-02-01T17:49:01.527Z,102044.38
2023-02-01T17:51:29.301Z,102062.41
2023-02-01T17:53:56.129Z,101975.34
2023-02-01T17:56:25.027Z,101971.41
2023-02-01T17:58:51.967Z,102050.78
2023-02-01T18:01:25.438Z,102055.34
2023-02-01T18:03:52.138Z,102057.31
2023-02-01T18:06:22.453Z,102050.22
2023-02-01T18:08:51.697Z,102043.03
2023-02-01T18:11:25.056Z,102050.03
2023-02-01T18:13:53.771Z,102049.16
2023-02-01T18:16:24.479Z,102047.50
2023-02-01T18:18:51.940Z,102064.59
2023-02-01T18:21:21.426Z,102047.50
2023-02-01T18:23:48.808Z,102010.25
2023-02-01T18:26:17.175Z,102041.44
2023-02-01T18:28:46.568Z,102054.72
2023-02-01T18:31:29.946Z,102044.59
2023-02-01T18:33:58.744Z,102047.41
2023-02-01T18:36:26.485Z,102044.16
2023-02-01T18:38:57.710Z,102041.75
2023-02-01T18:41:25.450Z,102055.47
2023-02-01T18:43:55.531Z,102049.81
2023-02-01T18:46:22.999Z,102052.41
2023-02-01T18:48:49.698Z,102044.91
2023-02-01T18:51:20.434Z,102047.94
2023-02-01T18:53:48.231Z,102054.03
2023-02-01T18:56:18.578Z,102057.53
2023-02-01T18:58:46.084Z,102022.28
2023-02-01T19:01:23.542Z,102049.69
2023-02-01T19:03:54.296Z,102037.06
2023-02-01T19:06:29.430Z,102050.13
2023-02-01T19:08:56.280Z,102060.47
2023-02-01T19:11:23.075Z,102065.03
2023-02-01T19:13:51.324Z,102061.22
2023-02-01T19:16:22.762Z,102070.34
2023-02-01T19:18:53.259Z,102061.13
2023-02-01T19:21:19.926Z,102072.00
2023-02-01T19:23:46.637Z,102062.88
2023-02-01T19:26:15.770Z,102066.34
2023-02-01T19:28:46.885Z,102054.56
2023-02-01T19:31:14.084Z,102042.50
2023-02-01T19:33:40.808Z,102070.47
2023-02-01T19:36:09.951Z,102063.97
2023-02-01T19:38:42.853Z,102074.84
2023-02-01T19:41:09.429Z,102045.88
2023-02-01T19:43:39.743Z,102064.81
2023-02-01T19:46:06.445Z,102067.75
2023-02-01T19:48:34.318Z,102042.63
2023-02-01T19:51:01.201Z,102044.91
2023-02-01T19:53:29.461Z,102029.44
2023-02-01T19:55:57.872Z,102048.16
2023-02-01T19:58:25.760Z,102065.81
2023-02-01T20:00:56.031Z,102064.81
2023-02-01T20:03:23.791Z,102010.41
2023-02-01T20:05:52.035Z,102056.75
2023-02-01T20:08:18.912Z,102053.28
2023-02-01T20:10:45.566Z,102049.38
2023-02-01T20:13:12.629Z,102049.38
2023-02-01T20:15:42.098Z,102051.84
2023-02-01T20:18:09.249Z,102059.06
2023-02-01T20:20:35.819Z,102043.06
2023-02-01T20:23:02.890Z,102061.25
2023-02-01T20:25:32.701Z,102067.84
2023-02-01T20:27:59.343Z,102068.41
2023-02-01T20:30:26.091Z,102076.91
2023-02-01T20:32:52.696Z,102078.53
2023-02-01T20:35:19.503Z,102071.59
2023-02-01T20:37:46.122Z,102076.13
2023-02-01T20:40:13.142Z,102080.50
2023-02-01T20:42:41.233Z,102046.78
2023-02-01T20:45:10.527Z,102071.13
2023-02-01T20:47:37.144Z,102071.00
2023-02-01T20:50:03.913Z,102085.50
2023-02-01T20:52:30.500Z,102085.72
2023-02-01T20:54:57.084Z,102088.44
2023-02-01T20:57:26.406Z,102102.72
2023-02-01T20:59:53.035Z,102085.09
2023-02-01T21:02:21.966Z,102087.34
2023-02-01T21:04:48.657Z,102102.38
2023-02-01T21:07:15.282Z,102085.72
2023-02-01T21:09:43.318Z,102096.94
2023-02-01T21:12:10.487Z,102101.06
2023-02-01T21:14:37.140Z,102108.69
2023-02-01T21:17:03.742Z,102111.84
2023-02-01T21:19:42.722Z,102086.25
2023-02-01T21:22:13.354Z,102099.00
2023-02-01T21:24:41.161Z,102122.41
2023-02-01T21:27:11.403Z,102105.97
2023-02-01T21:29:43.099Z,102077.56
2023-02-01T21:32:09.975Z,102114.44
2023-02-01T21:34:36.577Z,102108.47
2023-02-01T21:37:03.492Z,102111.19
2023-02-01T21:39:30.303Z,102111.84
2023-02-01T21:42:17.530Z,102114.22
2023-02-01T21:44:49.541Z,102122.50
2023-02-01T21:47:21.339Z,102123.50
2023-02-01T21:49:52.679Z,102124.25
2023-02-01T21:52:22.132Z,102126.44
2023-02-01T21:54:49.140Z,102114.22
2023-02-01T21:57:15.678Z,102116.84
2023-02-01T21:59:43.662Z,102134.38
2023-02-01T22:02:14.083Z,102121.22
2023-02-01T22:04:40.814Z,102137.22
2023-02-01T22:07:07.780Z,102021.53
2023-02-01T22:09:34.357Z,102133.50
2023-02-01T22:12:00.944Z,102126.22
2023-02-01T22:14:27.495Z,102071.97
2023-02-01T22:16:54.204Z,102122.28
2023-02-01T22:19:21.100Z,102141.88
2023-02-01T22:21:50.905Z,102145.69
2023-02-01T22:24:21.041Z,102132.50
2023-02-01T22:26:50.188Z,102147.09
2023-02-01T22:29:19.272Z,102161.03
2023-02-01T22:31:46.039Z,102123.34
2023-02-01T22:34:12.933Z,102136.06
2023-02-01T22:36:41.873Z,102152.97
2023-02-01T22:39:11.377Z,102154.91
2023-02-01T22:41:40.485Z,102146.19
2023-02-01T22:44:07.067Z,102140.97
2023-02-01T22:46:33.818Z,102153.38
2023-02-01T22:49:04.306Z,102140.34
2023-02-01T22:51:32.605Z,102130.88
2023-02-01T22:53:59.998Z,102078.91
2023-02-01T22:56:30.275Z,102144.25
2023-02-01T22:58:59.484Z,102152.31
2023-02-01T23:01:26.712Z,102146.66
2023-02-01T23:04:01.592Z,102134.25
2023-02-01T23:06:29.246Z,102143.72
2023-02-01T23:08:58.120Z,102131.75
2023-02-01T23:11:25.744Z,102128.19
2023-02-01T23:13:53.304Z,102068.78
2023-02-01T23:16:20.019Z,102152.53
2023-02-01T23:18:46.794Z,102149.06
2023-02-01T23:21:18.099Z,102139.50
2023-02-01T23:23:49.911Z,102150.63
2023-02-01T23:26:17.247Z,102164.97
2023-02-01T23:28:44.055Z,102167.91
2023-02-01T23:31:12.904Z,102156.38
2023-02-01T23:33:40.122Z,102185.88
2023-02-01T23:36:10.142Z,102142.09
2023-02-01T23:38:39.213Z,102183.16
2023-02-01T23:41:10.386Z,102182.16
2023-02-01T23:43:55.746Z,102179.75
2023-02-01T23:46:22.534Z,102177.81
2023-02-01T23:48:51.221Z,102155.25
2023-02-01T23:51:18.064Z,102179.75
2023-02-01T23:53:44.868Z,102180.66
2023-02-01T23:56:27.905Z,102163.09
2023-02-01T23:58:56.672Z,102157.09
